createdAt,value
2018-05-16T00:00:39.982Z,11.30
2018-05-16T00:03:08.469Z,11.67
2018-05-16T00:05:36.963Z,11.13
2018-05-16T00:08:05.438Z,11.00
2018-05-16T00:10:34.675Z,10.67
2018-05-16T00:13:03.881Z,9.57
2018-05-16T00:15:32.601Z,10.27
2018-05-16T00:18:01.777Z,9.57
2018-05-16T00:20:38.777Z,8.27
2018-05-16T00:23:07.255Z,11.53
2018-05-16T00:25:35.689Z,9.43
2018-05-16T00:28:04.158Z,8.47
2018-05-16T00:30:33.411Z,8.37
2018-05-16T00:33:04.207Z,9.20
2018-05-16T00:35:32.871Z,9.73
2018-05-16T00:38:01.355Z,8.40
2018-05-16T00:40:30.533Z,9.07
2018-05-16T00:42:59.029Z,9.27
2018-05-16T00:45:27.470Z,9.77
2018-05-16T00:47:55.937Z,9.40
2018-05-16T00:50:24.417Z,8.80
2018-05-16T00:52:52.899Z,8.40
2018-05-16T00:55:21.392Z,11.20
2018-05-16T00:57:50.065Z,8.60
2018-05-16T01:00:18.575Z,8.43
2018-05-16T01:02:47.086Z,7.10
2018-05-16T01:05:15.544Z,7.93
2018-05-16T01:07:44.719Z,7.53
2018-05-16T01:10:13.223Z,7.83
2018-05-16T01:12:41.761Z,8.47
2018-05-16T01:15:10.279Z,7.90
2018-05-16T01:17:39.494Z,9.23
2018-05-16T01:20:07.948Z,9.63
2018-05-16T01:22:36.537Z,8.50
2018-05-16T01:25:05.021Z,12.20
2018-05-16T01:27:34.269Z,11.13
2018-05-16T01:30:02.742Z,9.20
2018-05-16T01:32:31.284Z,9.13
2018-05-16T01:34:59.742Z,9.10
2018-05-16T01:37:28.538Z,10.17
2018-05-16T01:39:57.011Z,7.77
2018-05-16T01:42:25.471Z,9.27
2018-05-16T01:44:53.929Z,9.70
2018-05-16T01:47:22.595Z,9.87
2018-05-16T01:49:51.866Z,9.73
2018-05-16T01:52:20.310Z,8.50
2018-05-16T01:54:49.684Z,10.00
2018-05-16T01:57:18.151Z,9.20
2018-05-16T01:59:46.572Z,8.90
2018-05-16T02:02:15.221Z,8.97
2018-05-16T02:04:43.858Z,10.47
2018-05-16T02:07:12.305Z,9.70
2018-05-16T02:09:41.698Z,8.70
2018-05-16T02:12:10.234Z,9.00
2018-05-16T02:14:38.821Z,9.97
2018-05-16T02:17:07.300Z,10.87
2018-05-16T02:19:35.887Z,9.00
2018-05-16T02:22:04.381Z,17.23
2018-05-16T02:24:32.813Z,10.30
2018-05-16T02:27:01.266Z,9.87
2018-05-16T02:29:29.728Z,9.40
2018-05-16T02:31:58.179Z,9.50
2018-05-16T02:34:27.514Z,10.90
2018-05-16T02:36:56.759Z,11.13
2018-05-16T02:39:25.215Z,10.33
2018-05-16T02:41:53.722Z,9.97
2018-05-16T02:44:23.074Z,10.30
2018-05-16T02:46:52.384Z,10.60
2018-05-16T02:49:21.672Z,10.93
2018-05-16T02:51:50.123Z,10.80
2018-05-16T02:54:19.652Z,11.57
2018-05-16T02:56:48.138Z,12.20
2018-05-16T02:59:17.136Z,10.63
2018-05-16T03:01:45.610Z,12.10
2018-05-16T03:04:14.360Z,11.80
2018-05-16T03:06:43.244Z,11.60
2018-05-16T03:09:12.083Z,13.97
2018-05-16T03:11:40.585Z,11.27
2018-05-16T03:14:09.023Z,11.10
2018-05-16T03:16:37.507Z,11.57
2018-05-16T03:19:06.017Z,11.30
2018-05-16T03:21:34.525Z,11.67
2018-05-16T03:24:02.978Z,12.07
2018-05-16T03:26:31.471Z,11.27
2018-05-16T03:28:59.903Z,11.30
2018-05-16T03:31:28.359Z,13.30
2018-05-16T03:33:56.926Z,11.13
2018-05-16T03:36:29.812Z,12.47
2018-05-16T03:38:59.866Z,13.30
2018-05-16T03:41:28.336Z,11.60
2018-05-16T03:43:56.806Z,12.60
2018-05-16T03:46:25.278Z,13.23
2018-05-16T03:48:53.746Z,12.20
2018-05-16T03:51:22.243Z,11.63
2018-05-16T03:53:52.601Z,11.40
2018-05-16T03:56:21.272Z,11.67
2018-05-16T04:02:32.658Z,12.80
2018-05-16T04:05:01.157Z,12.10
2018-05-16T04:07:29.615Z,12.40
2018-05-16T04:09:58.075Z,13.90
2018-05-16T04:12:26.582Z,14.27
2018-05-16T04:14:58.096Z,14.33
2018-05-16T04:17:26.569Z,15.50
2018-05-16T04:19:55.010Z,15.77
2018-05-16T04:22:23.437Z,14.47
2018-05-16T04:24:51.911Z,13.87
2018-05-16T04:27:20.343Z,12.40
2018-05-16T04:29:50.181Z,12.90
2018-05-16T04:32:18.670Z,13.33
2018-05-16T04:34:47.145Z,13.10
2018-05-16T04:37:15.600Z,13.90
2018-05-16T04:39:44.069Z,13.37
2018-05-16T04:42:12.555Z,14.33
2018-05-16T04:44:41.134Z,14.30
2018-05-16T04:47:09.636Z,14.03
2018-05-16T04:49:38.231Z,10.60
2018-05-16T04:52:06.910Z,13.47
2018-05-16T04:54:35.421Z,14.67
2018-05-16T04:57:03.898Z,13.27
2018-05-16T04:59:33.139Z,15.40
2018-05-16T05:02:01.677Z,17.13
2018-05-16T05:04:30.153Z,15.43
2018-05-16T05:06:58.714Z,17.47
2018-05-16T05:09:27.228Z,16.00
2018-05-16T05:11:55.737Z,18.87
2018-05-16T05:14:24.202Z,16.40
2018-05-16T05:16:53.403Z,17.00
2018-05-16T05:19:21.910Z,17.03
2018-05-16T05:21:50.362Z,15.47
2018-05-16T05:24:18.921Z,16.63
2018-05-16T05:26:47.376Z,17.20
2018-05-16T05:29:16.655Z,18.13
2018-05-16T05:31:45.102Z,16.43
2018-05-16T05:34:13.736Z,17.03
2018-05-16T05:36:43.169Z,18.23
2018-05-16T05:39:11.862Z,19.23
2018-05-16T05:41:40.582Z,17.13
2018-05-16T05:44:09.084Z,16.63
2018-05-16T05:46:37.568Z,17.53
2018-05-16T05:49:06.943Z,17.10
2018-05-16T05:51:35.353Z,17.90
2018-05-16T05:54:04.012Z,15.90
2018-05-16T05:56:33.265Z,16.20
2018-05-16T05:59:01.693Z,18.93
2018-05-16T06:01:30.156Z,17.47
2018-05-16T06:03:58.709Z,16.43
2018-05-16T06:06:27.215Z,15.67
2018-05-16T06:08:55.670Z,16.40
2018-05-16T06:11:24.207Z,17.23
2018-05-16T06:13:52.721Z,17.70
2018-05-16T06:16:21.199Z,16.97
2018-05-16T06:18:49.745Z,17.03
2018-05-16T06:21:18.232Z,16.93
2018-05-16T06:23:46.728Z,14.87
2018-05-16T06:26:15.174Z,14.63
2018-05-16T06:28:43.722Z,15.07
2018-05-16T06:31:12.191Z,15.53
2018-05-16T06:33:40.780Z,14.17
2018-05-16T06:36:09.282Z,15.73
2018-05-16T06:38:37.717Z,15.53
2018-05-16T06:41:06.322Z,15.13
2018-05-16T06:43:34.784Z,14.90
2018-05-16T06:46:03.230Z,12.60
2018-05-16T06:48:31.798Z,13.80
2018-05-16T06:51:00.287Z,14.60
2018-05-16T06:53:28.766Z,15.17
2018-05-16T06:55:57.215Z,13.80
2018-05-16T06:58:25.697Z,14.93
2018-05-16T07:00:55.046Z,14.13
2018-05-16T07:03:23.576Z,12.53
2018-05-16T07:05:52.160Z,14.13
2018-05-16T07:08:21.412Z,14.53
2018-05-16T07:10:51.035Z,14.00
2018-05-16T07:13:19.523Z,14.07
2018-05-16T07:15:49.081Z,14.57
2018-05-16T07:18:17.660Z,16.37
2018-05-16T07:20:46.210Z,12.90
2018-05-16T07:23:14.679Z,12.37
2018-05-16T07:25:43.236Z,13.47
2018-05-16T07:28:12.061Z,13.80
2018-05-16T07:30:41.378Z,13.97
2018-05-16T07:33:09.823Z,13.90
2018-05-16T07:35:38.299Z,13.10
2018-05-16T07:38:07.554Z,14.97
2018-05-16T07:40:37.884Z,12.37
2018-05-16T07:43:07.086Z,15.70
2018-05-16T07:45:36.295Z,16.10
2018-05-16T07:48:04.836Z,14.70
2018-05-16T07:50:34.088Z,13.73
2018-05-16T07:53:02.554Z,14.30
2018-05-16T07:55:31.818Z,23.17
2018-05-16T07:58:00.379Z,15.80
2018-05-16T08:00:28.832Z,17.17
2018-05-16T08:02:57.311Z,16.50
2018-05-16T08:05:26.571Z,17.27
2018-05-16T08:07:55.054Z,16.70
2018-05-16T08:10:23.570Z,17.00
2018-05-16T08:12:52.000Z,16.57
2018-05-16T08:15:20.488Z,17.30
2018-05-16T08:17:49.028Z,17.83
2018-05-16T08:20:17.556Z,17.17
2018-05-16T08:22:46.766Z,17.60
2018-05-16T08:25:15.310Z,17.50
2018-05-16T08:27:43.870Z,15.70
2018-05-16T08:30:12.371Z,15.00
2018-05-16T08:32:40.857Z,15.17
2018-05-16T08:35:09.306Z,15.63
2018-05-16T08:37:37.823Z,16.13
2018-05-16T08:40:07.036Z,14.70
2018-05-16T08:42:35.492Z,14.47
2018-05-16T08:45:03.929Z,14.23
2018-05-16T08:47:32.412Z,14.67
2018-05-16T08:50:00.893Z,13.97
2018-05-16T08:52:29.399Z,13.63
2018-05-16T08:54:57.843Z,14.17
2018-05-16T08:57:26.287Z,12.53
2018-05-16T08:59:55.532Z,12.73
2018-05-16T09:02:23.978Z,15.83
2018-05-16T09:04:52.529Z,14.90
2018-05-16T09:07:21.758Z,12.80
2018-05-16T09:09:50.258Z,12.43
2018-05-16T09:12:18.783Z,12.70
2018-05-16T09:14:47.286Z,13.23
2018-05-16T09:17:15.800Z,12.33
2018-05-16T09:19:44.973Z,12.67
2018-05-16T09:22:13.436Z,12.93
2018-05-16T09:24:42.191Z,10.97
2018-05-16T09:27:10.667Z,10.60
2018-05-16T09:29:39.144Z,10.27
2018-05-16T09:32:07.607Z,9.80
2018-05-16T09:34:36.101Z,9.67
2018-05-16T09:37:04.588Z,9.40
2018-05-16T09:39:33.069Z,9.27
2018-05-16T09:42:01.555Z,9.70
2018-05-16T09:44:30.785Z,9.67
2018-05-16T09:47:00.053Z,7.90
2018-05-16T09:49:28.508Z,10.07
2018-05-16T09:51:57.781Z,11.70
2018-05-16T09:54:26.255Z,11.30
2018-05-16T09:56:54.748Z,11.20
2018-05-16T09:59:24.028Z,11.13
2018-05-16T10:01:52.460Z,10.53
2018-05-16T10:04:20.910Z,10.97
2018-05-16T10:06:49.458Z,12.70
2018-05-16T10:09:17.934Z,11.67
2018-05-16T10:11:46.583Z,11.10
2018-05-16T10:14:15.213Z,11.33
2018-05-16T10:19:26.816Z,11.67
2018-05-16T10:21:55.365Z,13.57
2018-05-16T10:24:24.588Z,12.80
2018-05-16T10:26:53.121Z,11.97
2018-05-16T10:29:28.937Z,12.83
2018-05-16T10:31:57.812Z,12.23
2018-05-16T10:34:27.050Z,14.17
2018-05-16T10:36:55.756Z,13.40
2018-05-16T10:39:24.995Z,12.80
2018-05-16T10:41:53.479Z,12.40
2018-05-16T10:44:22.785Z,10.57
2018-05-16T10:46:51.275Z,11.10
2018-05-16T10:49:19.769Z,11.37
2018-05-16T10:51:48.282Z,10.77
2018-05-16T10:54:16.783Z,10.93
2018-05-16T10:56:46.985Z,11.67
2018-05-16T10:59:16.299Z,11.40
2018-05-16T11:01:44.787Z,12.20
2018-05-16T11:04:14.684Z,11.80
2018-05-16T11:06:43.146Z,10.27
2018-05-16T11:09:11.691Z,12.43
2018-05-16T11:11:40.203Z,10.53
2018-05-16T11:14:08.887Z,17.30
2018-05-16T11:16:37.206Z,15.37
2018-05-16T11:19:05.687Z,12.60
2018-05-16T11:21:34.965Z,10.67
2018-05-16T11:24:03.439Z,10.50
2018-05-16T11:26:38.440Z,9.70
2018-05-16T11:29:06.900Z,10.13
2018-05-16T11:31:36.121Z,10.80
2018-05-16T11:34:05.390Z,10.33
2018-05-16T11:36:33.922Z,10.27
2018-05-16T11:39:02.406Z,11.00
2018-05-16T11:41:30.866Z,12.60
2018-05-16T11:44:00.104Z,11.10
2018-05-16T11:46:28.559Z,10.97
2018-05-16T11:48:57.082Z,10.70
2018-05-16T11:51:25.515Z,11.13
2018-05-16T11:53:54.072Z,10.63
2018-05-16T11:56:22.603Z,10.70
2018-05-16T11:58:51.906Z,9.50
2018-05-16T12:01:20.436Z,10.23
2018-05-16T12:03:49.646Z,11.47
2018-05-16T12:06:18.779Z,12.03
2018-05-16T12:08:47.254Z,13.13
2018-05-16T12:11:15.727Z,14.90
2018-05-16T12:13:44.161Z,14.93
2018-05-16T12:16:12.581Z,15.53
2018-05-16T12:18:41.043Z,15.60
2018-05-16T12:21:09.530Z,15.30
2018-05-16T12:23:37.977Z,15.53
2018-05-16T12:26:06.438Z,15.30
2018-05-16T12:28:35.748Z,14.87
2018-05-16T12:31:04.214Z,14.20
2018-05-16T12:33:33.350Z,15.80
2018-05-16T12:36:02.690Z,13.80
2018-05-16T12:38:31.170Z,15.13
2018-05-16T12:40:59.654Z,14.90
2018-05-16T12:43:32.517Z,14.83
2018-05-16T12:46:00.974Z,12.23
2018-05-16T12:48:30.056Z,8.17
2018-05-16T12:50:59.442Z,8.47
2018-05-16T12:53:27.888Z,10.17
2018-05-16T12:55:56.324Z,8.47
2018-05-16T12:58:24.786Z,6.13
2018-05-16T13:00:55.161Z,6.73
2018-05-16T13:03:35.539Z,7.93
2018-05-16T13:06:04.071Z,8.03
2018-05-16T13:08:32.645Z,8.83
2018-05-16T13:11:04.563Z,9.73
2018-05-16T13:13:35.063Z,9.10
2018-05-16T13:16:15.143Z,8.53
2018-05-16T13:18:44.660Z,9.30
2018-05-16T13:21:13.172Z,9.50
2018-05-16T13:23:41.669Z,9.57
2018-05-16T13:26:10.427Z,9.60
2018-05-16T13:28:38.903Z,9.80
2018-05-16T13:31:07.344Z,10.63
2018-05-16T13:33:36.660Z,10.30
2018-05-16T13:36:05.143Z,8.93
2018-05-16T13:38:33.577Z,9.97
2018-05-16T13:41:02.142Z,11.20
2018-05-16T13:43:30.590Z,10.57
2018-05-16T13:45:59.801Z,10.07
2018-05-16T13:48:28.295Z,10.40
2018-05-16T13:50:56.761Z,10.03
2018-05-16T13:53:25.356Z,9.27
2018-05-16T13:55:53.852Z,9.83
2018-05-16T13:58:22.295Z,10.30
2018-05-16T14:00:54.172Z,10.63
2018-05-16T14:03:22.691Z,9.87
2018-05-16T14:05:51.126Z,10.30
2018-05-16T14:08:19.609Z,12.00
2018-05-16T14:10:48.068Z,10.70
2018-05-16T14:13:16.591Z,12.67
2018-05-16T14:15:45.088Z,10.00
2018-05-16T14:18:13.662Z,11.47
2018-05-16T14:20:42.219Z,12.37
2018-05-16T14:23:10.751Z,11.97
2018-05-16T14:25:39.565Z,9.13
2018-05-16T14:28:08.099Z,9.33
2018-05-16T14:30:37.359Z,9.43
2018-05-16T14:33:05.930Z,12.50
2018-05-16T14:35:34.370Z,10.27
2018-05-16T14:38:02.884Z,10.50
2018-05-16T14:40:31.366Z,11.00
2018-05-16T14:43:05.169Z,13.23
2018-05-16T14:45:33.925Z,11.70
2018-05-16T14:48:02.362Z,10.70
2018-05-16T14:50:32.843Z,9.97
2018-05-16T14:53:01.358Z,10.23
2018-05-16T14:55:29.855Z,10.60
2018-05-16T14:57:58.271Z,10.13
2018-05-16T15:00:26.725Z,11.40
2018-05-16T15:02:56.975Z,11.33
2018-05-16T15:05:25.463Z,11.33
2018-05-16T15:07:53.955Z,10.50
2018-05-16T15:10:23.336Z,11.47
2018-05-16T15:12:51.847Z,10.93
2018-05-16T15:15:20.425Z,10.17
2018-05-16T15:17:48.971Z,11.00
2018-05-16T15:20:17.528Z,10.43
2018-05-16T15:22:45.958Z,11.73
2018-05-16T15:25:14.427Z,9.70
2018-05-16T15:27:42.852Z,9.25
2018-05-16T15:30:11.376Z,10.27
2018-05-16T15:32:44.069Z,10.30
2018-05-16T15:35:12.587Z,9.97
2018-05-16T15:37:41.132Z,11.10
2018-05-16T15:40:09.638Z,11.60
2018-05-16T15:42:38.066Z,10.73
2018-05-16T15:45:06.578Z,10.80
2018-05-16T15:47:35.132Z,10.80
2018-05-16T15:50:03.594Z,9.50
2018-05-16T15:52:32.078Z,10.53
2018-05-16T15:55:01.291Z,10.10
2018-05-16T15:57:29.728Z,9.87
2018-05-16T15:59:58.144Z,11.13
2018-05-16T16:02:26.697Z,10.43
2018-05-16T16:04:56.752Z,9.57
2018-05-16T16:07:25.247Z,9.77
2018-05-16T16:09:59.355Z,10.33
2018-05-16T16:12:27.877Z,11.10
2018-05-16T16:14:56.313Z,9.60
2018-05-16T16:17:24.746Z,11.37
2018-05-16T16:19:53.262Z,11.90
2018-05-16T16:22:21.706Z,10.20
2018-05-16T16:24:54.971Z,10.57
2018-05-16T16:27:23.422Z,9.10
2018-05-16T16:29:52.086Z,11.57
2018-05-16T16:32:21.443Z,11.90
2018-05-16T16:34:51.047Z,11.40
2018-05-16T16:37:19.523Z,12.20
2018-05-16T16:39:47.955Z,11.37
2018-05-16T16:42:17.213Z,12.40
2018-05-16T16:44:45.747Z,13.90
2018-05-16T16:47:14.950Z,16.43
2018-05-16T16:49:44.329Z,14.27
2018-05-16T16:52:15.174Z,21.80
2018-05-16T16:54:43.883Z,17.43
2018-05-16T16:57:12.985Z,25.03
2018-05-16T16:59:41.915Z,16.77
2018-05-16T17:02:10.582Z,15.07
2018-05-16T17:04:39.077Z,19.13
2018-05-16T17:07:07.545Z,22.83
2018-05-16T17:09:36.031Z,29.50
2018-05-16T17:12:04.496Z,17.67
2018-05-16T17:14:32.997Z,15.80
2018-05-16T17:17:01.531Z,16.03
2018-05-16T17:19:30.019Z,19.10
2018-05-16T17:21:58.679Z,22.53
2018-05-16T17:24:28.278Z,29.73
2018-05-16T17:26:57.419Z,21.03
2018-05-16T17:29:27.763Z,21.27
2018-05-16T17:31:57.400Z,20.53
2018-05-16T17:34:26.654Z,20.90
2018-05-16T17:36:55.540Z,22.40
2018-05-16T17:39:24.165Z,18.87
2018-05-16T17:41:53.398Z,20.23
2018-05-16T17:44:22.587Z,19.10
2018-05-16T17:46:52.794Z,19.53
2018-05-16T17:49:22.825Z,18.30
2018-05-16T17:51:52.232Z,20.13
2018-05-16T17:54:21.593Z,20.00
2018-05-16T17:56:51.135Z,20.53
2018-05-16T17:59:20.508Z,19.43
2018-05-16T18:01:49.792Z,17.20
2018-05-16T18:04:19.107Z,15.23
2018-05-16T18:06:48.503Z,14.30
2018-05-16T18:09:18.301Z,15.10
2018-05-16T18:11:47.945Z,12.93
2018-05-16T18:14:34.990Z,10.97
2018-05-16T18:17:21.628Z,12.30
2018-05-16T18:19:51.305Z,11.77
2018-05-16T18:22:20.950Z,10.10
2018-05-16T18:24:56.756Z,8.37
2018-05-16T18:27:26.391Z,9.63
2018-05-16T18:29:56.190Z,9.37
2018-05-16T18:32:25.826Z,9.10
2018-05-16T18:34:56.183Z,9.43
2018-05-16T18:37:25.882Z,9.80
2018-05-16T18:39:55.682Z,8.90
2018-05-16T18:42:25.470Z,10.67
2018-05-16T18:45:00.847Z,10.40
2018-05-16T18:47:31.230Z,14.70
2018-05-16T18:50:01.550Z,10.93
2018-05-16T18:52:31.283Z,13.20
2018-05-16T18:55:01.092Z,10.97
2018-05-16T18:57:30.765Z,12.03
2018-05-16T19:00:01.288Z,11.57
2018-05-16T19:02:30.916Z,12.20
2018-05-16T19:05:00.812Z,11.33
2018-05-16T19:07:31.218Z,12.47
2018-05-16T19:10:00.993Z,12.23
2018-05-16T19:12:30.777Z,12.63
2018-05-16T19:15:00.612Z,16.63
2018-05-16T19:17:30.361Z,13.80
2018-05-16T19:20:00.340Z,13.77
2018-05-16T19:22:30.006Z,14.53
2018-05-16T19:24:59.816Z,14.20
2018-05-16T19:27:30.165Z,14.67
2018-05-16T19:30:00.825Z,13.03
2018-05-16T19:32:30.492Z,11.73
2018-05-16T19:35:00.220Z,12.43
2018-05-16T19:37:30.064Z,12.70
2018-05-16T19:39:59.782Z,13.97
2018-05-16T19:42:29.331Z,14.93
2018-05-16T19:44:58.985Z,14.60
2018-05-16T19:47:28.826Z,14.40
2018-05-16T19:49:58.474Z,15.60
2018-05-16T19:52:28.112Z,15.77
2018-05-16T19:54:58.705Z,15.53
2018-05-16T19:57:29.279Z,13.47
2018-05-16T19:59:59.027Z,17.97
2018-05-16T20:02:28.874Z,19.57
2018-05-16T20:04:58.675Z,18.20
2018-05-16T20:07:28.554Z,29.73
2018-05-16T20:10:02.536Z,19.93
2018-05-16T20:12:32.184Z,15.97
2018-05-16T20:15:01.881Z,20.70
2018-05-16T20:17:32.426Z,21.93
2018-05-16T20:20:02.194Z,18.07
2018-05-16T20:22:31.648Z,20.93
2018-05-16T20:25:01.471Z,21.10
2018-05-16T20:27:31.245Z,20.83
2018-05-16T20:30:00.923Z,26.20
2018-05-16T20:32:31.265Z,19.70
2018-05-16T20:35:01.888Z,25.33
2018-05-16T20:37:31.530Z,16.57
2018-05-16T20:40:01.186Z,24.00
2018-05-16T20:42:30.157Z,19.23
2018-05-16T20:44:59.252Z,18.00
2018-05-16T20:47:27.956Z,20.23
2018-05-16T20:49:56.471Z,17.97
2018-05-16T20:52:26.771Z,22.77
2018-05-16T20:54:55.323Z,23.70
2018-05-16T20:57:23.854Z,17.53
2018-05-16T20:59:52.763Z,19.70
2018-05-16T21:02:21.407Z,28.00
2018-05-16T21:04:49.903Z,16.63
2018-05-16T21:07:18.402Z,23.57
2018-05-16T21:09:50.446Z,31.20
2018-05-16T21:12:18.949Z,25.33
2018-05-16T21:14:47.422Z,25.47
2018-05-16T21:17:15.915Z,18.33
2018-05-16T21:19:44.389Z,22.20
2018-05-16T21:22:12.853Z,22.47
2018-05-16T21:24:42.093Z,23.83
2018-05-16T21:27:11.662Z,23.63
2018-05-16T21:29:40.150Z,27.03
2018-05-16T21:32:08.660Z,22.87
2018-05-16T21:34:37.368Z,21.53
2018-05-16T21:37:06.862Z,28.07
2018-05-16T21:39:35.432Z,21.00
2018-05-16T21:42:04.938Z,25.30
2018-05-16T21:44:34.422Z,19.67
2018-05-16T21:47:02.984Z,14.50
2018-05-16T21:49:31.487Z,22.50
2018-05-16T21:52:00.161Z,20.43
2018-05-16T21:54:28.642Z,24.10
2018-05-16T21:56:57.121Z,23.17
2018-05-16T21:59:25.628Z,24.20
2018-05-16T22:01:54.104Z,18.47
2018-05-16T22:04:22.600Z,22.73
2018-05-16T22:06:51.260Z,23.23
2018-05-16T22:09:19.773Z,28.13
2018-05-16T22:11:48.237Z,17.40
2018-05-16T22:14:16.755Z,25.57
2018-05-16T22:16:45.250Z,15.23
2018-05-16T22:19:13.743Z,22.73
2018-05-16T22:21:42.226Z,27.60
2018-05-16T22:24:10.976Z,21.27
2018-05-16T22:26:39.453Z,25.40
2018-05-16T22:29:07.954Z,21.70
2018-05-16T22:31:42.570Z,24.30
2018-05-16T22:34:17.707Z,22.20
2018-05-16T22:36:51.884Z,21.20
2018-05-16T22:39:25.810Z,22.30
2018-05-16T22:41:59.769Z,19.73
2018-05-16T22:44:33.564Z,25.93
2018-05-16T22:47:02.030Z,26.67
2018-05-16T22:49:30.497Z,31.50
2018-05-16T22:51:58.937Z,21.40
2018-05-16T22:54:28.285Z,19.47
2018-05-16T22:56:56.854Z,16.70
2018-05-16T22:59:25.532Z,22.03
2018-05-16T23:01:54.218Z,18.00
2018-05-16T23:04:22.680Z,19.93
2018-05-16T23:06:51.616Z,24.97
2018-05-16T23:09:20.643Z,18.90
2018-05-16T23:11:49.777Z,24.23
2018-05-16T23:14:19.042Z,19.30
2018-05-16T23:16:47.550Z,18.67
2018-05-16T23:19:16.426Z,13.97
2018-05-16T23:21:44.901Z,19.60
2018-05-16T23:24:13.370Z,11.80
2018-05-16T23:26:41.939Z,20.50
2018-05-16T23:29:10.416Z,17.53
2018-05-16T23:31:38.920Z,15.60
2018-05-16T23:34:07.407Z,19.60
2018-05-16T23:36:35.864Z,14.70
2018-05-16T23:39:04.406Z,17.17
2018-05-16T23:41:33.025Z,19.23
2018-05-16T23:44:01.849Z,18.00
2018-05-16T23:46:30.306Z,11.40
2018-05-16T23:48:59.330Z,16.27
2018-05-16T23:51:27.805Z,13.60
2018-05-16T23:53:56.297Z,21.33
2018-05-16T23:56:24.785Z,17.27
2018-05-16T23:58:53.457Z,21.50
